Time;durP1;ratioP1;P1;durP2;ratioP2;P2;SDS_P1;SDS_P2;PMS_P1;PMS_P2;Temp;Humidity;BMP_temperature;BMP_pressure;BME280_temperature;BME280_humidity;BME280_pressure;Samples;Min_cycle;Max_cycle;Signal;HPM_P1;HPM_P2
2022/04/09 00:02:25;;;;;;;10.43;2.33;;;4.50;99.90;;;;;;5114514;27;20454;-79
2022/04/09 00:04:50;;;;;;;7.30;1.67;;;4.60;99.90;;;;;;5103140;28;20044;-79
2022/04/09 00:07:16;;;;;;;8.18;1.40;;;4.60;99.90;;;;;;5105964;28;20039;-79
2022/04/09 00:09:41;;;;;;;7.28;1.40;;;4.60;99.90;;;;;;5104768;27;20504;-78
2022/04/09 00:12:08;;;;;;;15.27;3.05;;;4.60;99.90;;;;;;5112346;28;20127;-78
2022/04/09 00:14:34;;;;;;;4.95;1.80;;;4.50;99.90;;;;;;5110856;28;20550;-78
2022/04/09 00:17:00;;;;;;;12.82;1.75;;;4.50;99.90;;;;;;5093348;28;20122;-77
2022/04/09 00:19:25;;;;;;;6.00;1.58;;;4.50;99.90;;;;;;5107212;28;20394;-78
2022/04/09 00:21:51;;;;;;;10.10;2.38;;;4.40;99.90;;;;;;5105983;28;20082;-78
2022/04/09 00:24:17;;;;;;;15.55;1.85;;;4.50;99.90;;;;;;5097962;28;20093;-78
2022/04/09 00:26:42;;;;;;;7.75;1.83;;;4.50;99.90;;;;;;5110112;27;20047;-78
2022/04/09 00:29:08;;;;;;;15.23;2.28;;;4.60;99.90;;;;;;5098229;27;20058;-78
2022/04/09 00:31:34;;;;;;;16.15;3.40;;;4.60;99.90;;;;;;5114715;27;20055;-78
2022/04/09 00:34:00;;;;;;;10.88;2.30;;;4.60;99.90;;;;;;5110195;28;20401;-78
2022/04/09 00:36:26;;;;;;;11.02;3.42;;;4.60;99.90;;;;;;5112766;27;20452;-81
2022/04/09 00:38:51;;;;;;;13.00;1.98;;;4.60;99.90;;;;;;5108849;27;20040;-78
2022/04/09 00:41:18;;;;;;;11.77;1.77;;;4.70;99.90;;;;;;5110602;27;20062;-77
2022/04/09 00:43:43;;;;;;;4.97;2.03;;;4.70;99.90;;;;;;5099338;27;20042;-78
2022/04/09 00:46:13;;;;;;;7.32;2.17;;;4.70;99.90;;;;;;5117529;27;20039;-77
2022/04/09 00:48:41;;;;;;;12.52;2.33;;;4.70;99.90;;;;;;5126524;27;20039;-77
2022/04/09 00:51:07;;;;;;;16.95;3.33;;;4.70;99.90;;;;;;5124587;27;20061;-78
2022/04/09 00:53:39;;;;;;;13.93;3.30;;;4.80;99.90;;;;;;5132464;27;20035;-78
2022/04/09 00:56:16;;;;;;;11.95;2.33;;;4.80;99.90;;;;;;5103251;27;20040;-78
2022/04/09 00:58:55;;;;;;;13.32;2.88;;;4.70;99.90;;;;;;5107970;27;20039;-78
2022/04/09 01:01:22;;;;;;;8.30;2.08;;;4.80;99.90;;;;;;5114300;27;20079;-78
2022/04/09 01:03:51;;;;;;;13.98;3.08;;;4.80;99.90;;;;;;5108821;28;20040;-77
2022/04/09 01:06:17;;;;;;;16.13;2.22;;;4.90;99.90;;;;;;5105326;28;20075;-78
2022/04/09 01:08:42;;;;;;;5.57;1.63;;;4.80;99.90;;;;;;5106346;27;20090;-77
2022/04/09 01:11:08;;;;;;;7.93;2.17;;;4.80;99.90;;;;;;5092634;28;20043;-77
2022/04/09 01:13:35;;;;;;;5.90;2.13;;;4.80;99.90;;;;;;5101353;28;20569;-78
2022/04/09 01:16:02;;;;;;;11.73;1.80;;;4.70;99.90;;;;;;5095613;28;20494;-78
2022/04/09 01:18:30;;;;;;;7.75;2.13;;;4.70;99.90;;;;;;5088143;28;20486;-78
2022/04/09 01:21:03;;;;;;;4.97;1.40;;;4.60;99.90;;;;;;5097712;28;20040;-78
2022/04/09 01:23:29;;;;;;;6.18;1.20;;;4.50;99.90;;;;;;5101128;28;20697;-78
2022/04/09 01:25:57;;;;;;;8.30;1.95;;;4.40;99.90;;;;;;5099767;28;20111;-78
2022/04/09 01:28:22;;;;;;;8.52;1.42;;;4.40;99.90;;;;;;5105974;28;20048;-77
2022/04/09 01:30:48;;;;;;;7.80;1.30;;;4.30;99.90;;;;;;5106238;27;20137;-78
2022/04/09 01:33:18;;;;;;;10.25;1.17;;;4.30;99.90;;;;;;5111228;28;20032;-77
2022/04/09 01:35:44;;;;;;;5.55;0.80;;;4.20;99.90;;;;;;5105289;28;20048;-78
2022/04/09 01:38:10;;;;;;;7.07;1.35;;;4.20;99.90;;;;;;5098436;28;20124;-77
2022/04/09 01:40:36;;;;;;;3.83;0.90;;;4.20;99.90;;;;;;5103659;28;20101;-78
2022/04/09 01:43:02;;;;;;;5.70;1.65;;;4.20;99.90;;;;;;5111167;28;20046;-78
2022/04/09 01:45:30;;;;;;;6.85;1.33;;;4.20;99.90;;;;;;5094596;28;20399;-77
2022/04/09 01:47:57;;;;;;;4.10;1.33;;;4.20;99.90;;;;;;5091185;28;20505;-76
2022/04/09 01:50:22;;;;;;;5.85;1.55;;;4.20;99.90;;;;;;5098921;27;20413;-76
2022/04/09 01:52:48;;;;;;;5.25;1.48;;;4.20;99.90;;;;;;5109729;28;20032;-77
2022/04/09 01:55:14;;;;;;;4.57;1.17;;;4.10;99.90;;;;;;5080071;28;20075;-77
2022/04/09 01:57:40;;;;;;;6.78;2.03;;;4.10;99.90;;;;;;5103928;27;20034;-77
2022/04/09 02:00:09;;;;;;;12.07;2.03;;;4.10;99.90;;;;;;5099083;27;20478;-77
2022/04/09 02:02:34;;;;;;;6.03;1.05;;;4.00;99.90;;;;;;5107717;28;20134;-77
2022/04/09 02:05:01;;;;;;;9.18;2.10;;;4.00;99.90;;;;;;5097218;28;20118;-77
2022/04/09 02:07:27;;;;;;;11.77;1.98;;;4.00;99.90;;;;;;5109888;27;20050;-77
2022/04/09 02:09:54;;;;;;;7.57;2.15;;;4.00;99.90;;;;;;5101944;28;20355;-77
2022/04/09 02:12:19;;;;;;;6.15;2.53;;;4.00;99.90;;;;;;5109493;28;20062;-77
2022/04/09 02:14:45;;;;;;;14.85;2.30;;;3.90;99.90;;;;;;5096435;28;20460;-77
2022/04/09 02:17:11;;;;;;;8.45;2.00;;;4.00;99.90;;;;;;5089166;28;20043;-77
2022/04/09 02:19:38;;;;;;;10.68;2.92;;;4.00;99.90;;;;;;5094964;28;20040;-77
2022/04/09 02:22:04;;;;;;;7.93;1.33;;;4.00;99.90;;;;;;5109056;27;20079;-76
2022/04/09 02:24:30;;;;;;;5.10;1.73;;;4.00;99.90;;;;;;5080681;28;20048;-77
2022/04/09 02:26:55;;;;;;;4.80;1.13;;;4.10;99.90;;;;;;5109391;28;20052;-77
2022/04/09 02:29:21;;;;;;;6.88;3.20;;;4.00;99.90;;;;;;5108622;27;20084;-78
2022/04/09 02:31:47;;;;;;;7.25;1.45;;;4.00;99.90;;;;;;5108201;28;20523;-78
2022/04/09 02:34:13;;;;;;;16.95;3.00;;;4.00;99.90;;;;;;5101577;28;20070;-77
2022/04/09 02:36:38;;;;;;;16.60;2.22;;;4.00;99.90;;;;;;5102829;28;20083;-77
2022/04/09 02:39:04;;;;;;;13.95;1.45;;;4.10;99.90;;;;;;5109511;27;20119;-77
2022/04/09 02:41:30;;;;;;;6.07;1.55;;;4.00;99.90;;;;;;5108518;28;20081;-77
2022/04/09 02:43:57;;;;;;;8.95;2.20;;;4.10;99.90;;;;;;5108866;28;20043;-77
2022/04/09 02:46:23;;;;;;;12.85;1.70;;;4.00;99.90;;;;;;5100960;27;20040;-77
2022/04/09 02:48:49;;;;;;;20.98;3.40;;;4.00;99.90;;;;;;5100819;28;20058;-77
2022/04/09 02:51:14;;;;;;;10.32;2.95;;;4.00;99.90;;;;;;5130352;27;20794;-77
2022/04/09 02:53:40;;;;;;;6.53;1.55;;;4.00;99.90;;;;;;5121130;27;20047;-77
2022/04/09 02:56:06;;;;;;;7.43;1.40;;;4.00;99.90;;;;;;5101859;28;20413;-78
2022/04/09 02:58:31;;;;;;;12.60;2.40;;;4.00;99.90;;;;;;5110096;28;20485;-77
2022/04/09 03:00:57;;;;;;;6.93;1.88;;;4.00;99.90;;;;;;5115417;27;20047;-77
2022/04/09 03:03:22;;;;;;;9.48;1.90;;;4.00;99.90;;;;;;5112223;28;20131;-77
2022/04/09 03:05:48;;;;;;;9.73;1.92;;;4.00;99.90;;;;;;5110190;28;20075;-77
2022/04/09 03:08:14;;;;;;;6.72;2.35;;;4.00;99.90;;;;;;5100815;27;20040;-77
2022/04/09 03:10:40;;;;;;;8.68;1.85;;;4.00;99.90;;;;;;5094185;28;20536;-77
2022/04/09 03:13:06;;;;;;;8.73;1.88;;;4.00;99.90;;;;;;5099629;27;21996;-77
2022/04/09 03:15:31;;;;;;;8.60;1.75;;;4.10;99.90;;;;;;5090327;28;20042;-78
2022/04/09 03:17:57;;;;;;;10.43;2.00;;;4.20;99.90;;;;;;5111862;28;20043;-79
2022/04/09 03:20:23;;;;;;;12.25;1.77;;;4.40;99.90;;;;;;5112928;27;20039;-77
2022/04/09 03:22:49;;;;;;;6.65;1.63;;;4.40;99.90;;;;;;5099371;27;20044;-78
2022/04/09 03:25:15;;;;;;;9.55;1.40;;;4.20;99.90;;;;;;5108170;27;20147;-77
2022/04/09 03:27:41;;;;;;;5.63;1.27;;;4.10;99.90;;;;;;5105067;27;20443;-77
2022/04/09 03:30:08;;;;;;;13.77;1.63;;;4.00;99.90;;;;;;5107872;27;20112;-78
2022/04/09 03:32:38;;;;;;;7.63;1.10;;;3.90;99.90;;;;;;5107601;28;20063;-78
2022/04/09 03:35:05;;;;;;;9.95;2.15;;;3.80;99.90;;;;;;5101666;28;20478;-77
2022/04/09 03:37:34;;;;;;;7.30;1.40;;;3.70;99.90;;;;;;5109196;28;20043;-77
2022/04/09 03:39:59;;;;;;;11.30;1.58;;;3.70;99.90;;;;;;5107044;28;20052;-77
2022/04/09 03:42:25;;;;;;;11.38;1.48;;;3.70;99.90;;;;;;5109468;27;20049;-76
2022/04/09 03:44:50;;;;;;;8.73;2.25;;;3.70;99.90;;;;;;5109827;27;20118;-80
2022/04/09 03:47:16;;;;;;;7.65;1.60;;;3.70;99.90;;;;;;5113477;27;20135;-77
2022/04/09 03:49:41;;;;;;;11.00;1.48;;;3.60;99.90;;;;;;5110448;28;20058;-77
2022/04/09 03:52:07;;;;;;;12.15;1.88;;;3.60;99.90;;;;;;5107059;28;20051;-78
2022/04/09 03:54:35;;;;;;;13.52;2.30;;;3.60;99.90;;;;;;5101620;28;20039;-78
2022/04/09 03:57:01;;;;;;;8.55;1.20;;;3.70;99.90;;;;;;5109532;27;20047;-77
2022/04/09 03:59:26;;;;;;;8.25;1.88;;;3.50;99.90;;;;;;5109596;27;20482;-77
2022/04/09 04:01:52;;;;;;;10.27;2.25;;;3.60;99.90;;;;;;5114401;27;20047;-78
2022/04/09 04:04:17;;;;;;;12.23;2.33;;;3.70;99.90;;;;;;5109517;27;20046;-77
2022/04/09 04:06:43;;;;;;;15.48;2.20;;;3.80;99.90;;;;;;5104503;27;20096;-77
2022/04/09 04:09:09;;;;;;;12.52;2.17;;;3.80;99.90;;;;;;5108466;28;20036;-77
2022/04/09 04:11:35;;;;;;;8.63;2.05;;;3.80;99.90;;;;;;5109709;27;20047;-77
2022/04/09 04:14:00;;;;;;;14.38;2.97;;;3.80;99.90;;;;;;5109004;28;20036;-77
2022/04/09 04:16:26;;;;;;;11.50;2.83;;;3.70;99.90;;;;;;5099995;28;20043;-78
2022/04/09 04:18:52;;;;;;;7.32;1.38;;;3.70;99.90;;;;;;5102506;27;20155;-77
2022/04/09 04:21:17;;;;;;;10.63;1.52;;;3.80;99.90;;;;;;5103487;27;20048;-77
2022/04/09 04:23:43;;;;;;;8.05;2.17;;;3.70;99.90;;;;;;5093430;28;20036;-77
2022/04/09 04:26:08;;;;;;;10.18;1.95;;;3.60;99.90;;;;;;5112307;27;20489;-77
2022/04/09 04:28:34;;;;;;;19.02;3.15;;;3.60;99.90;;;;;;5111827;28;20036;-77
2022/04/09 04:31:01;;;;;;;15.13;1.55;;;3.70;99.90;;;;;;5121666;27;20061;-77
2022/04/09 04:33:26;;;;;;;16.65;2.97;;;3.70;99.90;;;;;;5119714;27;20115;-77
2022/04/09 04:35:52;;;;;;;9.93;1.75;;;3.70;99.90;;;;;;5101619;27;20062;-77
2022/04/09 04:38:18;;;;;;;10.27;2.25;;;3.70;99.90;;;;;;5096810;28;20044;-77
2022/04/09 04:40:44;;;;;;;8.18;2.00;;;3.70;99.90;;;;;;5128936;27;20120;-77
2022/04/09 04:43:09;;;;;;;8.00;1.67;;;3.70;99.90;;;;;;5112451;28;20039;-79
2022/04/09 04:45:35;;;;;;;47.63;2.72;;;3.80;99.90;;;;;;5111327;28;20047;-79
2022/04/09 04:48:00;;;;;;;12.70;2.55;;;3.70;99.90;;;;;;5111406;27;20055;-83
2022/04/09 04:50:26;;;;;;;13.13;2.80;;;3.80;99.90;;;;;;5131956;27;20126;-79
2022/04/09 04:52:52;;;;;;;12.60;2.85;;;3.70;99.90;;;;;;5117803;27;20114;-79
2022/04/09 04:55:17;;;;;;;12.80;2.72;;;3.80;99.90;;;;;;5109572;27;20068;-80
2022/04/09 04:57:50;;;;;;;17.05;2.92;;;3.70;99.90;;;;;;5100695;28;20032;-78
2022/04/09 05:00:19;;;;;;;13.75;2.47;;;3.90;99.90;;;;;;5102569;27;20047;-79
2022/04/09 05:02:45;;;;;;;12.05;2.33;;;4.00;99.90;;;;;;5098313;28;20032;-80
2022/04/09 05:05:10;;;;;;;5.43;1.52;;;4.00;99.90;;;;;;5102020;28;20423;-79
2022/04/09 05:07:48;;;;;;;10.02;1.60;;;4.10;99.90;;;;;;5096501;28;20051;-79
2022/04/09 05:10:15;;;;;;;8.77;2.33;;;4.20;99.90;;;;;;5072879;28;20047;-78
2022/04/09 05:12:42;;;;;;;7.50;1.92;;;4.20;99.90;;;;;;5107669;28;20043;-80
2022/04/09 05:15:10;;;;;;;18.85;4.43;;;4.10;99.90;;;;;;5100834;28;20070;-79
2022/04/09 05:17:36;;;;;;;12.13;2.40;;;4.30;99.90;;;;;;5107271;28;20379;-79
2022/04/09 05:20:03;;;;;;;9.50;2.55;;;4.60;99.90;;;;;;5106998;28;20048;-80
2022/04/09 05:22:30;;;;;;;7.15;1.50;;;4.90;99.90;;;;;;5109868;27;20118;-84
2022/04/09 05:24:56;;;;;;;9.55;1.63;;;5.10;99.90;;;;;;5090597;28;20125;-82
2022/04/09 05:27:22;;;;;;;10.70;2.00;;;5.00;99.90;;;;;;5097963;28;20043;-81
2022/04/09 05:29:48;;;;;;;13.77;2.90;;;5.10;99.90;;;;;;5084476;28;20170;-81
2022/04/09 05:32:14;;;;;;;6.28;1.02;;;5.10;99.90;;;;;;5111978;28;20067;-81
2022/04/09 05:34:39;;;;;;;10.00;1.95;;;4.90;99.90;;;;;;5111554;28;20036;-83
2022/04/09 05:37:05;;;;;;;7.32;2.17;;;4.80;99.90;;;;;;5110804;28;20483;-80
2022/04/09 05:39:31;;;;;;;8.40;1.27;;;4.70;99.90;;;;;;5110720;28;20047;-80
2022/04/09 05:41:57;;;;;;;7.05;1.30;;;4.50;99.90;;;;;;5106635;28;20027;-81
2022/04/09 05:44:22;;;;;;;7.32;1.85;;;4.50;99.90;;;;;;5106776;28;20040;-80
2022/04/09 05:46:48;;;;;;;8.40;2.45;;;4.50;99.90;;;;;;5105047;28;20487;-81
2022/04/09 05:49:13;;;;;;;16.23;2.70;;;4.40;99.90;;;;;;5110002;28;20051;-82
2022/04/09 05:51:39;;;;;;;7.75;1.55;;;4.50;99.90;;;;;;5106981;28;20116;-83
2022/04/09 05:54:05;;;;;;;12.10;1.60;;;4.70;99.90;;;;;;5101085;28;20090;-82
2022/04/09 05:56:31;;;;;;;9.38;2.30;;;5.00;99.90;;;;;;5090746;27;20555;-84
2022/04/09 05:58:56;;;;;;;8.95;2.05;;;5.20;99.90;;;;;;5104249;28;20134;-82
2022/04/09 06:01:22;;;;;;;13.48;1.80;;;5.20;99.90;;;;;;5101572;27;20075;-81
2022/04/09 06:03:48;;;;;;;7.20;1.48;;;5.20;99.90;;;;;;5108271;28;20046;-81
2022/04/09 06:06:13;;;;;;;12.77;2.88;;;5.10;99.90;;;;;;5105393;28;20042;-85
2022/04/09 06:08:39;;;;;;;8.90;2.05;;;5.60;99.90;;;;;;5107926;28;20042;-84
2022/04/09 06:11:05;;;;;;;14.70;2.25;;;5.60;99.90;;;;;;5110278;27;20077;-82
2022/04/09 06:13:31;;;;;;;13.90;1.98;;;5.80;99.90;;;;;;5090389;28;20124;-81
2022/04/09 06:15:57;;;;;;;9.32;1.67;;;6.20;99.90;;;;;;5089020;28;20181;-83
2022/04/09 06:18:23;;;;;;;30.13;3.83;;;6.30;99.90;;;;;;5097617;28;20546;-82
2022/04/09 06:20:48;;;;;;;13.15;2.75;;;6.10;99.90;;;;;;5109721;28;20040;-82
2022/04/09 06:23:14;;;;;;;18.42;3.13;;;5.90;99.90;;;;;;5102808;28;20061;-81
2022/04/09 06:25:39;;;;;;;13.07;2.15;;;5.60;99.90;;;;;;5095931;28;20056;-81
2022/04/09 06:28:05;;;;;;;9.55;2.88;;;5.50;99.90;;;;;;5097894;28;20409;-82
2022/04/09 06:30:31;;;;;;;19.83;4.22;;;5.50;99.90;;;;;;5094379;28;20034;-82
2022/04/09 06:32:56;;;;;;;8.88;1.50;;;5.30;99.90;;;;;;5103892;27;20047;-83
2022/04/09 06:35:24;;;;;;;19.05;3.53;;;5.30;99.90;;;;;;5089768;28;20036;-82
2022/04/09 06:37:50;;;;;;;14.82;2.83;;;5.30;99.90;;;;;;5097108;27;20040;-87
2022/04/09 06:40:16;;;;;;;12.27;3.78;;;5.20;99.90;;;;;;5109443;27;20040;-85
2022/04/09 06:42:42;;;;;;;9.40;1.30;;;5.10;99.90;;;;;;5110088;27;20503;-84
2022/04/09 06:45:09;;;;;;;11.77;3.22;;;5.40;99.90;;;;;;5104577;28;20059;-85
2022/04/09 06:47:38;;;;;;;16.42;2.38;;;5.80;99.90;;;;;;5103760;28;20466;-84
2022/04/09 06:50:09;;;;;;;7.10;1.50;;;6.10;99.90;;;;;;5104315;28;20039;-85
2022/04/09 06:52:35;;;;;;;8.25;2.22;;;6.40;99.90;;;;;;5097923;28;20326;-85
2022/04/09 06:55:00;;;;;;;9.38;2.15;;;6.50;99.90;;;;;;5092283;28;20450;-86
2022/04/09 06:57:28;;;;;;;10.63;2.58;;;6.80;99.90;;;;;;5089797;28;20048;-86
2022/04/09 06:59:56;;;;;;;8.00;1.80;;;7.20;99.90;;;;;;5089180;28;20093;-83
2022/04/09 07:02:22;;;;;;;13.18;2.47;;;7.70;99.90;;;;;;5094845;27;20114;-81
2022/04/09 07:04:47;;;;;;;10.05;2.13;;;7.90;99.90;;;;;;5099204;28;20439;-81
2022/04/09 07:07:25;;;;;;;10.45;1.73;;;8.20;99.90;;;;;;5096266;28;20073;-79
2022/04/09 07:09:53;;;;;;;6.25;1.83;;;7.60;99.90;;;;;;5090062;28;20033;-82
2022/04/09 07:12:18;;;;;;;30.40;2.65;;;6.90;99.90;;;;;;5088535;28;20040;-82
2022/04/09 07:14:44;;;;;;;4.97;0.63;;;6.50;99.90;;;;;;5103875;28;20824;-83
2022/04/09 07:17:10;;;;;;;18.90;2.60;;;6.20;99.90;;;;;;5104947;28;20035;-84
2022/04/09 07:19:38;;;;;;;7.68;1.55;;;6.20;99.90;;;;;;5104289;27;20039;-84
2022/04/09 07:22:04;;;;;;;8.32;1.02;;;6.30;99.90;;;;;;5095410;28;20051;-83
2022/04/09 07:24:30;;;;;;;12.32;1.55;;;6.40;99.90;;;;;;5095960;28;20060;-83
2022/04/09 07:26:56;;;;;;;7.85;1.17;;;6.60;99.90;;;;;;5109185;28;20051;-86
2022/04/09 07:29:22;;;;;;;13.32;2.65;;;6.60;99.90;;;;;;5109143;28;20118;-86
2022/04/09 07:31:47;;;;;;;13.13;2.10;;;6.70;99.90;;;;;;5106981;28;20040;-84
2022/04/09 07:34:13;;;;;;;7.38;1.40;;;6.70;99.90;;;;;;5107831;28;20047;-81
2022/04/09 07:36:38;;;;;;;13.13;2.65;;;6.80;99.90;;;;;;5088060;28;20071;-76
2022/04/09 07:39:06;;;;;;;12.43;1.63;;;7.00;99.90;;;;;;5107590;28;20051;-87
2022/04/09 07:41:32;;;;;;;10.45;2.10;;;7.10;99.90;;;;;;5110164;28;20069;-85
2022/04/09 07:43:57;;;;;;;13.07;2.45;;;7.00;99.90;;;;;;5109649;28;20035;-76
2022/04/09 07:46:23;;;;;;;12.23;2.40;;;7.00;99.90;;;;;;5102786;28;20048;-86
2022/04/09 07:48:49;;;;;;;20.05;2.97;;;7.00;99.90;;;;;;5103108;28;20118;-85
2022/04/09 07:51:15;;;;;;;10.95;1.83;;;7.10;99.90;;;;;;5109384;28;20074;-82
2022/04/09 07:53:41;;;;;;;16.80;2.80;;;7.20;99.90;;;;;;5101258;27;20551;-82
2022/04/09 07:56:07;;;;;;;15.60;2.22;;;7.60;99.90;;;;;;5099689;27;20048;-85
2022/04/09 07:58:32;;;;;;;15.30;2.75;;;7.80;99.90;;;;;;5105567;28;20051;-83
2022/04/09 08:00:58;;;;;;;7.40;1.27;;;7.50;99.90;;;;;;5108044;27;20947;-85
2022/04/09 08:03:23;;;;;;;11.35;1.70;;;7.50;99.90;;;;;;5107786;28;20074;-82
2022/04/09 08:05:49;;;;;;;10.63;2.22;;;7.40;99.90;;;;;;5094031;28;20551;-83
2022/04/09 08:08:15;;;;;;;4.35;1.13;;;7.60;99.90;;;;;;5108802;28;20032;-85
2022/04/09 08:10:40;;;;;;;41.80;3.97;;;7.60;99.90;;;;;;5106184;28;20052;-84
2022/04/09 08:13:06;;;;;;;10.68;2.60;;;7.70;99.90;;;;;;5102491;28;20406;-82
2022/04/09 08:15:33;;;;;;;12.95;2.17;;;7.80;99.90;;;;;;5092592;28;20039;-84
2022/04/09 08:17:58;;;;;;;12.35;1.38;;;7.90;99.90;;;;;;5099996;28;20285;-88
2022/04/09 08:20:24;;;;;;;6.97;1.05;;;7.80;99.90;;;;;;5107772;27;20039;-85
2022/04/09 08:22:50;;;;;;;39.05;2.78;;;7.90;99.90;;;;;;5106735;28;20032;-85
2022/04/09 08:25:17;;;;;;;7.82;1.88;;;8.10;99.90;;;;;;5104846;28;20093;-83
2022/04/09 08:27:43;;;;;;;9.82;2.15;;;8.20;99.90;;;;;;5094770;28;20400;-86
2022/04/09 08:30:10;;;;;;;9.30;1.38;;;8.10;99.90;;;;;;5093562;28;20520;-83
2022/04/09 08:32:36;;;;;;;30.23;4.20;;;8.20;99.90;;;;;;5092866;28;20453;-86
2022/04/09 08:35:03;;;;;;;18.30;2.90;;;8.30;99.90;;;;;;5092319;28;20039;-86
2022/04/09 08:37:28;;;;;;;16.58;2.58;;;8.50;99.90;;;;;;5091451;28;20761;-86
2022/04/09 08:39:55;;;;;;;12.15;1.98;;;8.40;99.90;;;;;;5092376;28;20093;-85
2022/04/09 08:42:21;;;;;;;13.18;2.75;;;8.50;99.90;;;;;;5091270;28;20131;-84
2022/04/09 08:44:48;;;;;;;8.70;1.40;;;8.20;99.90;;;;;;5094267;28;20592;-84
2022/04/09 08:47:15;;;;;;;8.95;1.90;;;8.00;99.90;;;;;;5109398;27;20035;-84
2022/04/09 08:49:45;;;;;;;10.15;1.92;;;7.50;99.90;;;;;;5109551;27;20483;-85
2022/04/09 08:52:11;;;;;;;9.10;2.53;;;7.10;99.90;;;;;;5107117;28;20054;-84
2022/04/09 08:54:37;;;;;;;20.73;4.03;;;7.10;99.90;;;;;;5102603;27;20036;-84
2022/04/09 08:57:04;;;;;;;17.48;3.15;;;7.30;99.90;;;;;;5088613;28;20119;-83
2022/04/09 08:59:30;;;;;;;6.30;1.60;;;7.70;99.90;;;;;;5082207;28;20043;-83
2022/04/09 09:01:55;;;;;;;17.60;3.13;;;8.20;99.90;;;;;;5114330;27;20035;-84
2022/04/09 09:04:21;;;;;;;10.38;2.28;;;8.20;99.90;;;;;;5103082;28;20123;-86
2022/04/09 09:06:47;;;;;;;7.72;2.05;;;7.90;99.90;;;;;;5105758;28;20054;-85
2022/04/09 09:09:30;;;;;;;9.88;1.95;;;7.80;99.90;;;;;;5089766;28;20071;-85
2022/04/09 09:11:59;;;;;;;9.48;1.70;;;7.60;99.90;;;;;;5104290;28;20539;-85
2022/04/09 09:14:28;;;;;;;8.00;2.27;;;7.70;99.90;;;;;;5110001;28;20573;-84
2022/04/09 09:16:54;;;;;;;12.98;2.40;;;7.70;99.90;;;;;;5108332;28;20052;-86
2022/04/09 09:19:21;;;;;;;4.22;0.90;;;7.90;99.90;;;;;;5111259;28;20032;-84
2022/04/09 09:21:55;;;;;;;8.75;1.95;;;8.40;99.90;;;;;;5099650;28;20048;-84
2022/04/09 09:24:22;;;;;;;12.15;2.17;;;9.00;99.90;;;;;;5095397;28;20081;-84
2022/04/09 09:26:58;;;;;;;11.20;2.65;;;8.60;99.90;;;;;;5106334;28;20490;-83
2022/04/09 09:29:27;;;;;;;8.05;1.38;;;8.20;99.90;;;;;;5106654;28;20074;-86
2022/04/09 09:31:53;;;;;;;4.53;1.58;;;7.90;99.90;;;;;;5108770;28;20028;-84
2022/04/09 09:34:20;;;;;;;7.72;0.68;;;8.10;99.90;;;;;;5114898;27;20049;-87
2022/04/09 09:36:46;;;;;;;9.50;1.40;;;8.30;99.90;;;;;;5096390;27;20036;-87
2022/04/09 09:39:14;;;;;;;5.60;1.25;;;8.60;99.90;;;;;;5098842;27;20122;-85
2022/04/09 09:42:06;;;;;;;18.40;2.72;;;8.80;99.90;;;;;;5111276;28;20039;-87
2022/04/09 09:44:41;;;;;;;6.35;0.90;;;9.20;99.90;;;;;;5121360;27;20050;-85
2022/04/09 09:47:09;;;;;;;10.43;1.80;;;8.20;99.90;;;;;;5115094;27;20044;-85
2022/04/09 09:49:47;;;;;;;3.20;0.68;;;7.80;99.90;;;;;;5111818;28;20123;-85
2022/04/09 09:52:14;;;;;;;3.72;0.82;;;7.50;99.90;;;;;;5091892;28;20111;-84
2022/04/09 09:55:00;;;;;;;2.78;0.47;;;7.10;99.90;;;;;;5102239;28;20115;-83
2022/04/09 09:57:28;;;;;;;11.82;1.77;;;7.30;99.90;;;;;;5090107;27;20048;-85
2022/04/09 09:59:58;;;;;;;9.35;1.20;;;7.30;99.90;;;;;;5089250;28;20101;-86
2022/04/09 10:02:25;;;;;;;4.57;1.38;;;7.70;99.90;;;;;;5101722;27;20032;-85
2022/04/09 10:04:54;;;;;;;5.25;1.60;;;7.60;99.90;;;;;;5088160;28;20058;-81
2022/04/09 10:07:21;;;;;;;3.10;1.45;;;8.20;99.90;;;;;;5090357;27;20143;-85
2022/04/09 10:09:49;;;;;;;8.18;1.73;;;7.90;99.90;;;;;;5097168;28;20050;-83
2022/04/09 10:12:18;;;;;;;7.53;1.73;;;7.70;99.90;;;;;;5088997;28;20444;-83
2022/04/09 10:14:50;;;;;;;4.65;1.65;;;7.40;99.90;;;;;;5087333;28;20089;-84
2022/04/09 10:17:19;;;;;;;6.32;1.42;;;7.30;99.90;;;;;;5094342;28;20051;-83
2022/04/09 10:19:48;;;;;;;2.05;1.33;;;7.00;99.90;;;;;;5101257;27;20074;-81
2022/04/09 10:22:15;;;;;;;4.97;1.20;;;6.90;99.90;;;;;;5092676;28;20036;-84
2022/04/09 10:24:41;;;;;;;8.23;1.55;;;6.90;99.90;;;;;;5105037;28;21186;-84
2022/04/09 10:27:07;;;;;;;9.80;2.33;;;6.90;99.90;;;;;;5108383;28;20043;-86
2022/04/09 10:29:49;;;;;;;10.02;2.85;;;7.20;99.90;;;;;;5101509;28;20040;-86
2022/04/09 10:32:46;;;;;;;6.95;1.20;;;7.70;99.90;;;;;;5111642;27;20085;-79
2022/04/09 10:35:38;;;;;;;7.60;1.10;;;7.90;99.90;;;;;;5089931;28;20425;-81
2022/04/09 10:38:10;;;;;;;3.85;1.13;;;8.10;99.90;;;;;;5107473;28;20096;-81
2022/04/09 10:40:37;;;;;;;13.20;1.30;;;8.30;99.90;;;;;;5106146;28;20035;-82
2022/04/09 10:43:04;;;;;;;7.28;1.10;;;8.50;99.90;;;;;;5098202;28;20040;-81
2022/04/09 10:45:32;;;;;;;8.75;1.10;;;8.60;99.90;;;;;;5095094;28;20046;-76
2022/04/09 10:48:06;;;;;;;15.23;2.63;;;8.60;99.90;;;;;;5110232;28;20132;-83
2022/04/09 10:50:56;;;;;;;9.43;2.30;;;8.50;99.90;;;;;;5110808;28;20042;-81
2022/04/09 10:53:25;;;;;;;4.95;0.80;;;8.50;99.90;;;;;;5110217;28;20047;-81
2022/04/09 10:56:20;;;;;;;5.32;1.38;;;8.30;99.90;;;;;;5105295;28;20039;-81
2022/04/09 10:59:01;;;;;;;13.15;2.33;;;8.40;99.90;;;;;;5096139;28;20048;-82
2022/04/09 11:01:56;;;;;;;8.88;1.05;;;8.60;99.90;;;;;;5100515;28;20043;-81
2022/04/09 11:04:45;;;;;;;6.80;1.42;;;8.50;99.90;;;;;;5099931;28;20512;-81
2022/04/09 11:07:24;;;;;;;5.88;1.30;;;8.30;99.90;;;;;;5106493;28;20067;-82
2022/04/09 11:09:59;;;;;;;4.00;0.70;;;8.80;99.90;;;;;;5098433;28;20050;-80
2022/04/09 11:12:42;;;;;;;4.00;0.95;;;8.90;99.90;;;;;;5091931;28;20044;-81
2022/04/09 11:15:10;;;;;;;5.22;1.20;;;8.80;99.90;;;;;;5104238;28;20401;-83
2022/04/09 11:17:37;;;;;;;3.58;1.05;;;9.00;99.90;;;;;;5100339;28;20066;-82
2022/04/09 11:20:10;;;;;;;6.32;0.63;;;9.20;99.90;;;;;;5106988;28;20032;-78
2022/04/09 11:22:36;;;;;;;5.88;1.13;;;8.90;99.90;;;;;;5105975;28;20090;-79
2022/04/09 11:25:04;;;;;;;6.10;0.82;;;8.80;99.90;;;;;;5110926;28;20052;-78
2022/04/09 11:27:30;;;;;;;3.13;0.85;;;8.40;99.90;;;;;;5096869;27;20142;-79
2022/04/09 11:29:56;;;;;;;4.05;1.33;;;8.50;99.90;;;;;;5109177;28;20127;-79
2022/04/09 11:32:23;;;;;;;6.90;1.35;;;8.60;99.90;;;;;;5110888;27;20036;-76
2022/04/09 11:34:53;;;;;;;10.43;2.20;;;8.90;99.90;;;;;;5101069;27;20043;-81
2022/04/09 11:37:20;;;;;;;6.97;1.73;;;9.10;99.90;;;;;;5111208;27;20084;-80
2022/04/09 11:39:48;;;;;;;7.10;1.10;;;9.20;99.90;;;;;;5111452;27;20047;-78
2022/04/09 11:42:14;;;;;;;8.75;2.05;;;9.30;99.90;;;;;;5089757;28;20051;-79
2022/04/09 11:44:40;;;;;;;6.03;1.13;;;8.90;99.90;;;;;;5111236;28;20032;-80
2022/04/09 11:47:15;;;;;;;1.48;0.50;;;8.30;99.90;;;;;;5111687;28;20036;-81
2022/04/09 11:49:45;;;;;;;2.35;0.32;;;8.00;99.90;;;;;;5105629;28;20038;-82
2022/04/09 11:52:11;;;;;;;2.28;0.25;;;7.90;99.90;;;;;;5106783;28;20040;-83
2022/04/09 11:54:39;;;;;;;3.67;0.90;;;8.40;99.90;;;;;;5075582;28;20050;-81
2022/04/09 11:57:10;;;;;;;1.50;0.40;;;8.50;99.90;;;;;;5097994;27;20048;-83
2022/04/09 11:59:37;;;;;;;4.57;0.85;;;8.60;99.90;;;;;;5099668;28;20032;-83
2022/04/09 12:02:03;;;;;;;3.58;0.68;;;8.30;99.90;;;;;;5102471;27;20106;-80
2022/04/09 12:04:35;;;;;;;1.25;0.63;;;7.90;99.90;;;;;;5104027;28;20055;-80
2022/04/09 12:07:05;;;;;;;1.75;0.25;;;7.70;99.90;;;;;;5092829;27;20044;-79
2022/04/09 12:09:31;;;;;;;2.30;0.38;;;7.60;99.90;;;;;;5092391;28;20044;-78
2022/04/09 12:12:00;;;;;;;3.83;0.95;;;7.70;99.90;;;;;;5108168;27;20493;-78
2022/04/09 12:14:27;;;;;;;2.58;0.40;;;7.80;99.90;;;;;;5096765;28;20044;-78
2022/04/09 12:16:53;;;;;;;3.05;0.32;;;8.10;99.90;;;;;;5103289;28;20115;-79
2022/04/09 12:19:31;;;;;;;3.22;0.57;;;8.00;99.90;;;;;;5104746;27;20062;-77
2022/04/09 12:22:14;;;;;;;2.20;0.60;;;8.00;99.90;;;;;;5111729;28;20482;-76
2022/04/09 12:24:54;;;;;;;2.83;0.85;;;8.30;99.90;;;;;;5093431;28;20089;-76
2022/04/09 12:27:21;;;;;;;1.40;0.30;;;8.40;99.90;;;;;;5100671;27;20111;-76
2022/04/09 12:29:50;;;;;;;1.27;0.57;;;8.60;99.90;;;;;;5112357;27;20489;-76
2022/04/09 12:32:19;;;;;;;3.10;0.90;;;8.50;99.90;;;;;;5106865;27;20096;-76
2022/04/09 12:34:58;;;;;;;2.65;0.40;;;8.80;99.90;;;;;;5099772;28;20047;-75
2022/04/09 12:37:25;;;;;;;4.03;0.40;;;8.70;99.90;;;;;;5112398;28;20071;-77
2022/04/09 12:40:09;;;;;;;5.57;0.85;;;9.00;99.90;;;;;;5101926;27;20043;-77
2022/04/09 12:42:39;;;;;;;6.07;1.55;;;8.90;99.90;;;;;;5102419;28;20051;-77
2022/04/09 12:45:12;;;;;;;2.30;0.82;;;9.30;99.90;;;;;;5114392;27;20048;-77
2022/04/09 12:47:38;;;;;;;1.90;1.23;;;9.50;99.90;;;;;;5115501;27;20104;-75
2022/04/09 12:50:06;;;;;;;32.80;2.55;;;9.20;99.90;;;;;;5107891;27;20035;-72
2022/04/09 12:52:32;;;;;;;8.50;2.40;;;9.20;99.90;;;;;;5132607;27;20087;-77
2022/04/09 12:54:58;;;;;;;9.10;1.20;;;9.10;99.90;;;;;;5124845;27;21122;-78
2022/04/09 12:57:25;;;;;;;5.53;1.30;;;9.00;99.90;;;;;;5111503;28;20044;-77